VJT13 GCXO-GCRR
Flight info
| Callsign | VJT13 |
|---|---|
| Flight time | 0h 44m |
| Altitude | 20000 |
| Route | LARYS |
| Aircraft | SF50/L-SDGRWY/L |
Departure
| Time | 2026-04-29 20:46 |
|---|---|
| Airport | Tenerife Norte-Ciudad de La Laguna Airport (GCXO) |
Arrival
| Time | 2026-04-29 21:30 |
|---|---|
| Airport | César Manrique-Lanzarote Airport (GCRR) |
| Time | Latitude | Longitude | Altitude | Speed | Heading |
|---|---|---|---|---|---|
| 2026-04-29 20:39 | 28.48719 | -16.34768 | 2066 ft | 0 kts | 111° |
| 2026-04-29 20:39 | 28.48717 | -16.34763 | 2066 ft | 3 kts | 112° |
| 2026-04-29 20:39 | 28.48717 | -16.34761 | 2066 ft | 0 kts | 112° |
| 2026-04-29 20:42 | 28.48716 | -16.34761 | 2066 ft | 0 kts | 112° |
| 2026-04-29 20:42 | 28.48708 | -16.34744 | 2065 ft | 4 kts | 133° |
| 2026-04-29 20:43 | 28.48672 | -16.34701 | 2063 ft | 10 kts | 133° |
| 2026-04-29 20:43 | 28.48607 | -16.34622 | 2061 ft | 17 kts | 136° |
| 2026-04-29 20:43 | 28.48518 | -16.34493 | 2057 ft | 25 kts | 126° |
| 2026-04-29 20:43 | 28.48126 | -16.33336 | 2013 ft | 29 kts | 115° |
| 2026-04-29 20:44 | 28.47907 | -16.32707 | 1988 ft | 38 kts | 110° |
| 2026-04-29 20:44 | 28.47794 | -16.32540 | 1976 ft | 21 kts | 182° |
| 2026-04-29 20:44 | 28.47752 | -16.32606 | 1985 ft | 11 kts | 291° |
| 2026-04-29 20:44 | 28.47851 | -16.32903 | 2009 ft | 68 kts | 291° |
| 2026-04-29 20:45 | 28.48092 | -16.33581 | 2071 ft | 109 kts | 292° |
| 2026-04-29 20:45 | 28.48388 | -16.34450 | 2277 ft | 130 kts | 289° |
| 2026-04-29 20:45 | 28.48710 | -16.35528 | 2426 ft | 156 kts | 289° |
| 2026-04-29 20:45 | 28.49099 | -16.36765 | 2574 ft | 180 kts | 290° |
| 2026-04-29 20:46 | 28.49560 | -16.38198 | 2845 ft | 202 kts | 290° |
| 2026-04-29 20:46 | 28.50064 | -16.39755 | 3104 ft | 221 kts | 290° |
| 2026-04-29 20:46 | 28.50616 | -16.41460 | 3366 ft | 236 kts | 290° |
| 2026-04-29 20:46 | 28.51194 | -16.43242 | 3618 ft | 247 kts | 289° |
| 2026-04-29 20:47 | 28.51802 | -16.45123 | 4013 ft | 250 kts | 289° |
| 2026-04-29 20:47 | 28.52407 | -16.46996 | 4392 ft | 252 kts | 289° |
| 2026-04-29 20:47 | 28.53228 | -16.48748 | 4797 ft | 255 kts | 313° |
| 2026-04-29 20:47 | 28.54226 | -16.49499 | 5034 ft | 259 kts | 336° |
| 2026-04-29 20:48 | 28.56635 | -16.49726 | 5506 ft | 253 kts | 4° |
| 2026-04-29 20:48 | 28.58288 | -16.49259 | 5746 ft | 235 kts | 18° |
| 2026-04-29 20:48 | 28.59806 | -16.48592 | 5992 ft | 232 kts | 20° |
| 2026-04-29 20:48 | 28.61168 | -16.47604 | 6248 ft | 235 kts | 52° |
| 2026-04-29 20:49 | 28.61710 | -16.45830 | 6634 ft | 238 kts | 86° |
| 2026-04-29 20:49 | 28.61501 | -16.43985 | 7005 ft | 237 kts | 111° |
| 2026-04-29 20:49 | 28.60845 | -16.42292 | 7374 ft | 239 kts | 118° |
| 2026-04-29 20:49 | 28.60059 | -16.40576 | 7755 ft | 248 kts | 120° |
| 2026-04-29 20:50 | 28.59229 | -16.38790 | 8035 ft | 260 kts | 120° |
| 2026-04-29 20:50 | 28.58398 | -16.36997 | 8061 ft | 253 kts | 120° |
| 2026-04-29 20:50 | 28.57589 | -16.35253 | 8062 ft | 246 kts | 120° |
| 2026-04-29 20:50 | 28.56795 | -16.33547 | 8060 ft | 241 kts | 120° |
| 2026-04-29 20:51 | 28.56017 | -16.31877 | 8057 ft | 241 kts | 120° |
| 2026-04-29 20:51 | 28.55223 | -16.30174 | 8057 ft | 243 kts | 120° |
| 2026-04-29 20:51 | 28.54431 | -16.28449 | 8055 ft | 246 kts | 116° |
| 2026-04-29 20:51 | 28.54028 | -16.26505 | 8072 ft | 262 kts | 92° |
| 2026-04-29 20:52 | 28.54294 | -16.24363 | 8069 ft | 269 kts | 77° |
| 2026-04-29 20:52 | 28.54778 | -16.22294 | 8064 ft | 266 kts | 75° |
| 2026-04-29 20:52 | 28.55271 | -16.20256 | 8064 ft | 264 kts | 75° |
| 2026-04-29 20:52 | 28.55759 | -16.18208 | 8066 ft | 267 kts | 75° |
| 2026-04-29 20:53 | 28.56255 | -16.16134 | 8065 ft | 267 kts | 75° |
| 2026-04-29 20:53 | 28.56749 | -16.14056 | 8065 ft | 267 kts | 75° |
| 2026-04-29 20:53 | 28.57240 | -16.12003 | 8065 ft | 267 kts | 75° |
| 2026-04-29 20:53 | 28.57732 | -16.09942 | 8067 ft | 267 kts | 75° |
| 2026-04-29 20:54 | 28.58714 | -16.05811 | 8065 ft | 266 kts | 75° |
| 2026-04-29 20:54 | 28.59203 | -16.03752 | 8066 ft | 266 kts | 76° |
| 2026-04-29 20:54 | 28.59695 | -16.01674 | 8064 ft | 266 kts | 75° |
| 2026-04-29 20:55 | 28.60187 | -15.99611 | 8066 ft | 266 kts | 75° |
| 2026-04-29 20:55 | 28.60677 | -15.97545 | 8065 ft | 266 kts | 75° |
| 2026-04-29 20:55 | 28.61164 | -15.95487 | 8065 ft | 266 kts | 75° |
| 2026-04-29 20:55 | 28.61650 | -15.93435 | 8065 ft | 266 kts | 75° |
| 2026-04-29 20:56 | 28.62140 | -15.91363 | 8067 ft | 266 kts | 75° |
| 2026-04-29 20:56 | 28.62627 | -15.89309 | 8065 ft | 266 kts | 75° |
| 2026-04-29 20:56 | 28.63113 | -15.87248 | 8065 ft | 266 kts | 75° |
| 2026-04-29 20:56 | 28.63605 | -15.85166 | 8066 ft | 266 kts | 75° |
| 2026-04-29 20:57 | 28.64091 | -15.83109 | 8065 ft | 266 kts | 75° |
| 2026-04-29 20:57 | 28.64577 | -15.81050 | 8063 ft | 266 kts | 75° |
| 2026-04-29 20:57 | 28.65055 | -15.79023 | 8062 ft | 266 kts | 75° |
| 2026-04-29 20:57 | 28.65540 | -15.76965 | 8058 ft | 267 kts | 75° |
| 2026-04-29 20:58 | 28.66026 | -15.74898 | 8059 ft | 267 kts | 75° |
| 2026-04-29 20:58 | 28.66508 | -15.72851 | 8056 ft | 267 kts | 75° |
| 2026-04-29 20:58 | 28.66994 | -15.70779 | 8055 ft | 267 kts | 75° |
| 2026-04-29 20:58 | 28.67478 | -15.68724 | 8054 ft | 267 kts | 75° |
| 2026-04-29 20:59 | 28.67963 | -15.66653 | 8052 ft | 267 kts | 75° |
| 2026-04-29 20:59 | 28.68452 | -15.64572 | 8051 ft | 267 kts | 76° |
| 2026-04-29 20:59 | 28.68939 | -15.62488 | 8050 ft | 267 kts | 75° |
| 2026-04-29 20:59 | 28.69422 | -15.60423 | 8049 ft | 267 kts | 75° |
| 2026-04-29 21:00 | 28.69899 | -15.58382 | 8048 ft | 267 kts | 75° |
| 2026-04-29 21:00 | 28.70385 | -15.56311 | 8047 ft | 267 kts | 75° |
| 2026-04-29 21:00 | 28.70872 | -15.54228 | 8047 ft | 267 kts | 75° |
| 2026-04-29 21:00 | 28.71351 | -15.52172 | 8047 ft | 267 kts | 75° |
| 2026-04-29 21:01 | 28.71838 | -15.50075 | 8047 ft | 267 kts | 75° |
| 2026-04-29 21:01 | 28.72317 | -15.48025 | 8047 ft | 267 kts | 75° |
| 2026-04-29 21:01 | 28.72797 | -15.45960 | 8045 ft | 267 kts | 75° |
| 2026-04-29 21:01 | 28.73278 | -15.43890 | 8046 ft | 267 kts | 75° |
| 2026-04-29 21:02 | 28.73757 | -15.41837 | 8044 ft | 267 kts | 75° |
| 2026-04-29 21:02 | 28.74228 | -15.39805 | 8043 ft | 267 kts | 75° |
| 2026-04-29 21:02 | 28.74713 | -15.37726 | 8041 ft | 267 kts | 75° |
| 2026-04-29 21:02 | 28.75192 | -15.35652 | 8040 ft | 266 kts | 75° |
| 2026-04-29 21:03 | 28.75671 | -15.33584 | 8039 ft | 266 kts | 76° |
| 2026-04-29 21:03 | 28.76140 | -15.31553 | 8036 ft | 266 kts | 76° |
| 2026-04-29 21:03 | 28.76612 | -15.29526 | 8037 ft | 266 kts | 76° |
| 2026-04-29 21:03 | 28.77082 | -15.27494 | 8038 ft | 266 kts | 76° |
| 2026-04-29 21:04 | 28.77552 | -15.25461 | 8037 ft | 266 kts | 76° |
| 2026-04-29 21:04 | 28.78026 | -15.23404 | 8038 ft | 266 kts | 76° |
| 2026-04-29 21:04 | 28.78494 | -15.21378 | 8038 ft | 266 kts | 76° |
| 2026-04-29 21:04 | 28.78972 | -15.19312 | 8037 ft | 266 kts | 76° |
| 2026-04-29 21:05 | 28.79453 | -15.17216 | 8038 ft | 266 kts | 76° |
| 2026-04-29 21:05 | 28.79926 | -15.15164 | 8038 ft | 265 kts | 76° |
| 2026-04-29 21:05 | 28.80397 | -15.13114 | 8038 ft | 266 kts | 76° |
| 2026-04-29 21:05 | 28.80875 | -15.11031 | 8038 ft | 265 kts | 76° |
| 2026-04-29 21:06 | 28.81348 | -15.08976 | 8038 ft | 265 kts | 76° |
| 2026-04-29 21:06 | 28.81821 | -15.06909 | 8040 ft | 265 kts | 76° |
| 2026-04-29 21:06 | 28.82298 | -15.04835 | 8038 ft | 265 kts | 76° |
| 2026-04-29 21:06 | 28.82772 | -15.02768 | 8040 ft | 266 kts | 76° |
| 2026-04-29 21:07 | 28.83244 | -15.00710 | 8040 ft | 266 kts | 76° |
| 2026-04-29 21:07 | 28.83717 | -14.98644 | 8038 ft | 266 kts | 76° |
| 2026-04-29 21:07 | 28.84023 | -14.97307 | 8039 ft | 266 kts | 76° |
| 2026-04-29 21:07 | 28.84649 | -14.94565 | 8039 ft | 266 kts | 76° |
| 2026-04-29 21:08 | 28.85115 | -14.92526 | 8039 ft | 266 kts | 76° |
| 2026-04-29 21:08 | 28.85580 | -14.90486 | 8038 ft | 266 kts | 76° |
| 2026-04-29 21:08 | 28.86044 | -14.88456 | 8041 ft | 266 kts | 76° |
| 2026-04-29 21:08 | 28.86513 | -14.86392 | 8040 ft | 266 kts | 76° |
| 2026-04-29 21:09 | 28.86949 | -14.84304 | 8036 ft | 266 kts | 82° |
| 2026-04-29 21:09 | 28.87142 | -14.82207 | 8031 ft | 266 kts | 86° |
| 2026-04-29 21:09 | 28.87293 | -14.80071 | 8029 ft | 266 kts | 86° |
| 2026-04-29 21:09 | 28.87435 | -14.77955 | 8014 ft | 266 kts | 86° |
| 2026-04-29 21:10 | 28.87576 | -14.75843 | 8003 ft | 267 kts | 86° |
| 2026-04-29 21:10 | 28.87715 | -14.73734 | 8004 ft | 266 kts | 86° |
| 2026-04-29 21:10 | 28.87855 | -14.71640 | 8003 ft | 266 kts | 86° |
| 2026-04-29 21:10 | 28.87994 | -14.69531 | 8003 ft | 266 kts | 86° |
| 2026-04-29 21:11 | 28.88132 | -14.67433 | 7930 ft | 263 kts | 86° |
| 2026-04-29 21:11 | 28.88270 | -14.65329 | 7825 ft | 268 kts | 86° |
| 2026-04-29 21:11 | 28.88410 | -14.63185 | 7828 ft | 268 kts | 86° |
| 2026-04-29 21:11 | 28.88547 | -14.61080 | 7830 ft | 267 kts | 86° |
| 2026-04-29 21:12 | 28.88685 | -14.58958 | 7832 ft | 267 kts | 86° |
| 2026-04-29 21:12 | 28.88821 | -14.56865 | 7834 ft | 267 kts | 86° |
| 2026-04-29 21:12 | 28.88957 | -14.54760 | 7838 ft | 267 kts | 86° |
| 2026-04-29 21:12 | 28.89094 | -14.52641 | 7839 ft | 267 kts | 86° |
| 2026-04-29 21:13 | 28.89230 | -14.50536 | 7842 ft | 267 kts | 86° |
| 2026-04-29 21:13 | 28.89367 | -14.48415 | 7845 ft | 266 kts | 86° |
| 2026-04-29 21:13 | 28.89502 | -14.46313 | 7849 ft | 266 kts | 86° |
| 2026-04-29 21:13 | 28.89637 | -14.44214 | 7852 ft | 266 kts | 86° |
| 2026-04-29 21:14 | 28.89770 | -14.42108 | 7854 ft | 266 kts | 86° |
| 2026-04-29 21:14 | 28.89906 | -14.39988 | 7857 ft | 266 kts | 86° |
| 2026-04-29 21:14 | 28.90041 | -14.37885 | 7861 ft | 266 kts | 86° |
| 2026-04-29 21:14 | 28.90175 | -14.35794 | 7840 ft | 267 kts | 86° |
| 2026-04-29 21:15 | 28.90311 | -14.33654 | 7564 ft | 268 kts | 87° |
| 2026-04-29 21:15 | 28.90444 | -14.31548 | 7434 ft | 260 kts | 87° |
| 2026-04-29 21:15 | 28.90573 | -14.29492 | 7405 ft | 266 kts | 87° |
| 2026-04-29 21:15 | 28.90704 | -14.27397 | 7409 ft | 264 kts | 87° |
| 2026-04-29 21:16 | 28.90834 | -14.25322 | 7368 ft | 263 kts | 87° |
| 2026-04-29 21:16 | 28.90966 | -14.23199 | 7078 ft | 267 kts | 87° |
| 2026-04-29 21:16 | 28.91096 | -14.21116 | 6794 ft | 266 kts | 87° |
| 2026-04-29 21:16 | 28.91228 | -14.18999 | 6503 ft | 264 kts | 87° |
| 2026-04-29 21:17 | 28.91352 | -14.16977 | 6220 ft | 248 kts | 87° |
| 2026-04-29 21:17 | 28.91467 | -14.15066 | 5955 ft | 237 kts | 87° |
| 2026-04-29 21:17 | 28.91578 | -14.13232 | 5698 ft | 228 kts | 87° |
| 2026-04-29 21:17 | 28.91688 | -14.11441 | 5449 ft | 222 kts | 86° |
| 2026-04-29 21:18 | 28.91794 | -14.09710 | 5207 ft | 217 kts | 86° |
| 2026-04-29 21:18 | 28.91847 | -14.08034 | 5102 ft | 207 kts | 89° |
| 2026-04-29 21:18 | 28.91906 | -14.06411 | 5055 ft | 203 kts | 87° |
| 2026-04-29 21:18 | 28.91998 | -14.04818 | 5012 ft | 199 kts | 86° |
| 2026-04-29 21:19 | 28.92099 | -14.03256 | 4968 ft | 197 kts | 86° |
| 2026-04-29 21:19 | 28.92201 | -14.01688 | 4924 ft | 195 kts | 86° |
| 2026-04-29 21:19 | 28.92301 | -14.00153 | 4882 ft | 193 kts | 86° |
| 2026-04-29 21:19 | 28.92398 | -13.98639 | 4841 ft | 191 kts | 86° |
| 2026-04-29 21:20 | 28.92495 | -13.97130 | 4801 ft | 190 kts | 86° |
| 2026-04-29 21:20 | 28.92593 | -13.95627 | 4760 ft | 189 kts | 86° |
| 2026-04-29 21:20 | 28.92689 | -13.94134 | 4718 ft | 188 kts | 86° |
| 2026-04-29 21:20 | 28.92782 | -13.92660 | 4679 ft | 187 kts | 86° |
| 2026-04-29 21:21 | 28.92877 | -13.91175 | 4639 ft | 187 kts | 85° |
| 2026-04-29 21:21 | 28.92972 | -13.89691 | 4600 ft | 186 kts | 86° |
| 2026-04-29 21:21 | 28.93060 | -13.88219 | 4559 ft | 186 kts | 86° |
| 2026-04-29 21:21 | 28.93029 | -13.86752 | 4514 ft | 185 kts | 109° |
| 2026-04-29 21:22 | 28.92267 | -13.85614 | 4483 ft | 182 kts | 142° |
| 2026-04-29 21:22 | 28.91208 | -13.84851 | 4487 ft | 183 kts | 157° |
| 2026-04-29 21:22 | 28.89993 | -13.84357 | 4448 ft | 190 kts | 164° |
| 2026-04-29 21:22 | 28.88717 | -13.83916 | 4360 ft | 194 kts | 164° |
| 2026-04-29 21:23 | 28.87434 | -13.83420 | 4226 ft | 195 kts | 161° |
| 2026-04-29 21:23 | 28.86166 | -13.82841 | 4062 ft | 198 kts | 158° |
| 2026-04-29 21:23 | 28.84918 | -13.82162 | 3877 ft | 196 kts | 154° |
| 2026-04-29 21:23 | 28.83745 | -13.81420 | 3698 ft | 196 kts | 150° |
| 2026-04-29 21:24 | 28.82592 | -13.80579 | 3495 ft | 197 kts | 146° |
| 2026-04-29 21:24 | 28.81490 | -13.79659 | 3285 ft | 198 kts | 142° |
| 2026-04-29 21:24 | 28.80419 | -13.78642 | 3096 ft | 199 kts | 139° |
| 2026-04-29 21:24 | 28.79412 | -13.77554 | 2856 ft | 201 kts | 135° |
| 2026-04-29 21:25 | 28.78456 | -13.76375 | 2577 ft | 201 kts | 131° |
| 2026-04-29 21:25 | 28.77727 | -13.75081 | 2344 ft | 195 kts | 105° |
| 2026-04-29 21:25 | 28.77909 | -13.73617 | 2301 ft | 188 kts | 62° |
| 2026-04-29 21:25 | 28.78579 | -13.72353 | 2309 ft | 184 kts | 56° |
| 2026-04-29 21:26 | 28.79266 | -13.71140 | 2310 ft | 182 kts | 55° |
| 2026-04-29 21:26 | 28.79866 | -13.69870 | 2305 ft | 183 kts | 69° |
| 2026-04-29 21:26 | 28.80385 | -13.68563 | 2296 ft | 181 kts | 50° |
| 2026-04-29 21:26 | 28.81451 | -13.67849 | 2306 ft | 178 kts | 18° |
| 2026-04-29 21:27 | 28.82231 | -13.67536 | 2309 ft | 178 kts | 19° |
| 2026-04-29 21:27 | 28.83751 | -13.66774 | 2197 ft | 184 kts | 24° |
| 2026-04-29 21:27 | 28.84896 | -13.66123 | 1969 ft | 183 kts | 25° |
| 2026-04-29 21:27 | 28.86019 | -13.65473 | 1769 ft | 171 kts | 26° |
| 2026-04-29 21:28 | 28.86985 | -13.64908 | 1550 ft | 148 kts | 26° |
| 2026-04-29 21:28 | 28.87884 | -13.64389 | 1345 ft | 146 kts | 26° |
| 2026-04-29 21:28 | 28.88788 | -13.63865 | 1145 ft | 144 kts | 27° |
| 2026-04-29 21:28 | 28.89670 | -13.63354 | 950 ft | 143 kts | 27° |
| 2026-04-29 21:29 | 28.90525 | -13.62859 | 766 ft | 132 kts | 28° |
| 2026-04-29 21:29 | 28.91331 | -13.62391 | 589 ft | 128 kts | 28° |
| 2026-04-29 21:29 | 28.92112 | -13.61937 | 419 ft | 126 kts | 28° |
| 2026-04-29 21:29 | 28.92879 | -13.61492 | 247 ft | 119 kts | 28° |
| 2026-04-29 21:30 | 28.93582 | -13.61082 | 120 ft | 109 kts | 28° |
| 2026-04-29 21:30 | 28.94187 | -13.60730 | 36 ft | 79 kts | 27° |
| 2026-04-29 21:30 | 28.94599 | -13.60569 | 46 ft | 50 kts | 356° |
| 2026-04-29 21:30 | 28.94853 | -13.60499 | 58 ft | 23 kts | 2° |
| 2026-04-29 21:31 | 28.94922 | -13.60538 | 63 ft | 6 kts | 301° |
| 2026-04-29 21:31 | 28.94933 | -13.60562 | 64 ft | 0 kts | 293° |
| 2026-04-29 21:32 | 28.94936 | -13.60571 | 65 ft | 3 kts | 293° |
| 2026-04-29 21:32 | 28.94953 | -13.60614 | 68 ft | 8 kts | 295° |
| 2026-04-29 21:32 | 28.94988 | -13.60692 | 74 ft | 13 kts | 297° |
| 2026-04-29 21:32 | 28.95012 | -13.60755 | 77 ft | 0 kts | 294° |
| 2026-04-29 21:51 | 28.95012 | -13.60756 | 77 ft | 0 kts | 285° |
| 2026-04-29 21:51 | 28.94908 | -13.60708 | 69 ft | 23 kts | 147° |
| 2026-04-29 21:52 | 28.94739 | -13.60640 | 57 ft | 27 kts | 181° |
| 2026-04-29 21:52 | 28.94552 | -13.60720 | 49 ft | 32 kts | 201° |
| 2026-04-29 21:52 | 28.94352 | -13.60856 | 46 ft | 35 kts | 188° |
| 2026-04-29 21:52 | 28.94123 | -13.60971 | 40 ft | 38 kts | 197° |
| 2026-04-29 21:53 | 28.93888 | -13.61099 | 40 ft | 35 kts | 204° |
| 2026-04-29 21:53 | 28.93704 | -13.61214 | 41 ft | 11 kts | 206° |
| 2026-04-29 21:53 | 28.93644 | -13.61192 | 38 ft | 13 kts | 114° |
| 2026-04-29 21:53 | 28.93618 | -13.61055 | 30 ft | 20 kts | 62° |
| 2026-04-29 21:54 | 28.93820 | -13.60949 | 30 ft | 65 kts | 23° |
| 2026-04-29 21:54 | 28.94446 | -13.60595 | 101 ft | 127 kts | 28° |
| 2026-04-29 21:54 | 28.95316 | -13.60075 | 416 ft | 158 kts | 27° |
| 2026-04-29 21:54 | 28.96231 | -13.59354 | 672 ft | 158 kts | 42° |
| 2026-04-29 21:55 | 28.97066 | -13.58535 | 920 ft | 161 kts | 38° |
| 2026-04-29 21:55 | 28.98003 | -13.57738 | 1181 ft | 179 kts | 35° |
| 2026-04-29 21:55 | 28.99048 | -13.56906 | 1556 ft | 188 kts | 34° |
| 2026-04-29 21:55 | 29.00127 | -13.56012 | 1930 ft | 195 kts | 46° |
| 2026-04-29 21:56 | 29.00710 | -13.54617 | 2307 ft | 201 kts | 72° |
| 2026-04-29 21:56 | 29.01284 | -13.53144 | 2687 ft | 205 kts | 56° |
| 2026-04-29 21:56 | 29.02174 | -13.51861 | 3063 ft | 208 kts | 46° |
| 2026-04-29 21:56 | 29.03181 | -13.50654 | 3441 ft | 211 kts | 44° |
| 2026-04-29 21:57 | 29.04206 | -13.49473 | 3815 ft | 213 kts | 43° |
| 2026-04-29 21:57 | 29.05256 | -13.48270 | 4191 ft | 215 kts | 43° |
| 2026-04-29 21:57 | 29.06320 | -13.47052 | 4569 ft | 217 kts | 43° |
| 2026-04-29 21:57 | 29.07415 | -13.45799 | 4951 ft | 235 kts | 44° |
| 2026-04-29 21:58 | 29.08624 | -13.44437 | 5335 ft | 250 kts | 39° |
| 2026-04-29 21:58 | 29.10284 | -13.43741 | 5719 ft | 258 kts | 359° |
| 2026-04-29 21:58 | 29.11997 | -13.44325 | 6104 ft | 263 kts | 328° |
| 2026-04-29 21:58 | 29.13536 | -13.45454 | 6612 ft | 264 kts | 321° |
| 2026-04-29 21:59 | 29.14722 | -13.47024 | 7113 ft | 262 kts | 300° |